createdAt,value
2022-08-19T08:19:46.596Z,11.50
2022-08-19T08:34:56.560Z,9.90
2022-08-19T08:50:05.098Z,10.93
2022-08-19T09:05:16.451Z,12.15
2022-08-19T09:20:24.232Z,10.75
2022-08-19T09:35:32.336Z,9.13
2022-08-19T09:50:54.908Z,8.30
2022-08-19T10:06:01.457Z,10.53
2022-08-19T10:21:11.597Z,8.97
2022-08-19T10:36:19.681Z,6.57
2022-08-19T10:51:45.842Z,9.83
2022-08-19T11:06:53.548Z,6.50
2022-08-19T11:22:00.196Z,5.03
2022-08-19T11:37:06.801Z,8.33
2022-08-19T11:52:11.739Z,5.60
2022-08-19T12:07:16.527Z,5.83
2022-08-19T12:22:21.728Z,7.20
2022-08-19T12:37:26.499Z,5.90
2022-08-19T12:52:31.400Z,5.00
2022-08-19T13:07:36.161Z,5.67
2022-08-19T13:22:40.889Z,6.47
2022-08-19T13:37:46.377Z,5.00
2022-08-19T13:52:51.147Z,6.50
2022-08-19T14:07:59.250Z,4.90
2022-08-19T14:23:04.140Z,5.73
2022-08-19T14:38:17.212Z,5.30
2022-08-19T14:53:21.976Z,4.10
2022-08-19T15:08:27.153Z,5.37
2022-08-19T15:23:32.516Z,4.67
2022-08-19T15:38:40.274Z,6.60
2022-08-19T15:53:46.860Z,5.30
2022-08-19T16:08:51.500Z,5.97
2022-08-19T16:23:56.582Z,10.33
2022-08-19T16:39:01.725Z,8.43
2022-08-19T16:54:07.153Z,7.47
2022-08-19T17:09:12.049Z,9.60
2022-08-19T17:24:16.668Z,11.10
2022-08-19T17:39:21.268Z,7.87
2022-08-19T17:54:26.026Z,7.67
2022-08-19T18:09:42.123Z,6.70
2022-08-19T18:24:47.190Z,9.13
2022-08-19T18:40:10.930Z,11.23
2022-08-19T18:55:17.990Z,8.93
